sensor_id;sensor_type;location;lat;lon;timestamp;pressure;altitude;pressure_sealevel;temperature;humidity
39265;BME280;42646;51.910;7.724;2024-03-07T00:02:01;101972.91;;;4.46;100.00
39265;BME280;42646;51.910;7.724;2024-03-07T00:04:29;101979.97;;;4.46;100.00
39265;BME280;42646;51.910;7.724;2024-03-07T00:06:56;101978.25;;;4.45;100.00
39265;BME280;42646;51.910;7.724;2024-03-07T00:09:24;101982.72;;;4.43;100.00
39265;BME280;42646;51.910;7.724;2024-03-07T00:11:52;101987.13;;;4.42;100.00
39265;BME280;42646;51.910;7.724;2024-03-07T00:14:20;101983.63;;;4.42;100.00
39265;BME280;42646;51.910;7.724;2024-03-07T00:16:50;101984.50;;;4.42;100.00
39265;BME280;42646;51.910;7.724;2024-03-07T00:19:17;101987.13;;;4.42;100.00
39265;BME280;42646;51.910;7.724;2024-03-07T00:21:45;101993.31;;;4.41;100.00
39265;BME280;42646;51.910;7.724;2024-03-07T00:24:14;101987.13;;;4.42;100.00
39265;BME280;42646;51.910;7.724;2024-03-07T00:26:42;101987.06;;;4.44;100.00
39265;BME280;42646;51.910;7.724;2024-03-07T00:29:10;101990.53;;;4.44;100.00
39265;BME280;42646;51.910;7.724;2024-03-07T00:31:38;101988.72;;;4.46;100.00
39265;BME280;42646;51.910;7.724;2024-03-07T00:34:07;101990.41;;;4.47;100.00
39265;BME280;42646;51.910;7.724;2024-03-07T00:36:45;101984.28;;;4.47;100.00
39265;BME280;42646;51.910;7.724;2024-03-07T00:39:12;101983.28;;;4.49;100.00
39265;BME280;42646;51.910;7.724;2024-03-07T00:41:40;101984.22;;;4.48;100.00
39265;BME280;42646;51.910;7.724;2024-03-07T00:44:08;101978.09;;;4.48;100.00
39265;BME280;42646;51.910;7.724;2024-03-07T00:46:36;101981.59;;;4.48;100.00
39265;BME280;42646;51.910;7.724;2024-03-07T00:49:04;101982.50;;;4.47;100.00
39265;BME280;42646;51.910;7.724;2024-03-07T00:51:33;101980.72;;;4.48;100.00
39265;BME280;42646;51.910;7.724;2024-03-07T00:54:03;101985.16;;;4.47;100.00
39265;BME280;42646;51.910;7.724;2024-03-07T00:56:32;101986.09;;;4.46;100.00
39265;BME280;42646;51.910;7.724;2024-03-07T00:59:00;101981.66;;;4.47;100.00
39265;BME280;42646;51.910;7.724;2024-03-07T01:01:27;101979.03;;;4.47;100.00
39265;BME280;42646;51.910;7.724;2024-03-07T01:03:55;101979.03;;;4.47;100.00
39265;BME280;42646;51.910;7.724;2024-03-07T01:06:23;101981.59;;;4.48;100.00
39265;BME280;42646;51.910;7.724;2024-03-07T01:08:52;101982.59;;;4.46;100.00
39265;BME280;42646;51.910;7.724;2024-03-07T01:11:19;101978.25;;;4.45;100.00
39265;BME280;42646;51.910;7.724;2024-03-07T01:13:47;101980.00;;;4.44;100.00
39265;BME280;42646;51.910;7.724;2024-03-07T01:16:15;101981.84;;;4.42;100.00
39265;BME280;42646;51.910;7.724;2024-03-07T01:18:42;101979.28;;;4.41;100.00
39265;BME280;42646;51.910;7.724;2024-03-07T01:21:11;101974.09;;;4.39;100.00
39265;BME280;42646;51.910;7.724;2024-03-07T01:23:39;101976.72;;;4.39;100.00
39265;BME280;42646;51.910;7.724;2024-03-07T01:26:08;101978.63;;;4.36;100.00
39265;BME280;42646;51.910;7.724;2024-03-07T01:28:36;101977.00;;;4.33;100.00
39265;BME280;42646;51.910;7.724;2024-03-07T01:31:04;101976.13;;;4.33;100.00
39265;BME280;42646;51.910;7.724;2024-03-07T01:33:31;101974.47;;;4.30;100.00
39265;BME280;42646;51.910;7.724;2024-03-07T01:35:59;101978.97;;;4.28;100.00
39265;BME280;42646;51.910;7.724;2024-03-07T01:38:27;101978.97;;;4.28;100.00
39265;BME280;42646;51.910;7.724;2024-03-07T01:40:54;101979.94;;;4.25;100.00
39265;BME280;42646;51.910;7.724;2024-03-07T01:43:23;101978.22;;;4.24;100.00
39265;BME280;42646;51.910;7.724;2024-03-07T01:45:53;101972.22;;;4.21;100.00
39265;BME280;42646;51.910;7.724;2024-03-07T01:48:25;101971.44;;;4.19;100.00
39265;BME280;42646;51.910;7.724;2024-03-07T01:50:53;101971.63;;;4.14;100.00
39265;BME280;42646;51.910;7.724;2024-03-07T01:53:22;101970.00;;;4.12;100.00
39265;BME280;42646;51.910;7.724;2024-03-07T01:55:51;101964.91;;;4.07;100.00
39265;BME280;42646;51.910;7.724;2024-03-07T01:58:20;101973.81;;;4.05;100.00
39265;BME280;42646;51.910;7.724;2024-03-07T02:00:50;101970.44;;;4.01;100.00
39265;BME280;42646;51.910;7.724;2024-03-07T02:03:17;101969.72;;;3.97;100.00
39265;BME280;42646;51.910;7.724;2024-03-07T02:05:45;101968.13;;;3.93;100.00
39265;BME280;42646;51.910;7.724;2024-03-07T02:08:13;101964.66;;;3.93;100.00
39265;BME280;42646;51.910;7.724;2024-03-07T02:10:41;101965.56;;;3.92;100.00
39265;BME280;42646;51.910;7.724;2024-03-07T02:13:08;101961.34;;;3.88;100.00
39265;BME280;42646;51.910;7.724;2024-03-07T02:15:36;101966.72;;;3.85;100.00
39265;BME280;42646;51.910;7.724;2024-03-07T02:18:06;101956.34;;;3.82;100.00
39265;BME280;42646;51.910;7.724;2024-03-07T02:20:35;101963.44;;;3.80;100.00
39265;BME280;42646;51.910;7.724;2024-03-07T02:23:04;101958.28;;;3.77;100.00
39265;BME280;42646;51.910;7.724;2024-03-07T02:25:32;101954.03;;;3.74;100.00
39265;BME280;42646;51.910;7.724;2024-03-07T02:28:04;101958.47;;;3.72;100.00
39265;BME280;42646;51.910;7.724;2024-03-07T02:30:32;101957.69;;;3.70;100.00
39265;BME280;42646;51.910;7.724;2024-03-07T02:33:00;101951.69;;;3.66;100.00
39265;BME280;42646;51.910;7.724;2024-03-07T02:35:33;101951.75;;;3.65;100.00
39265;BME280;42646;51.910;7.724;2024-03-07T02:38:02;101949.19;;;3.63;100.00
39265;BME280;42646;51.910;7.724;2024-03-07T02:40:31;101950.16;;;3.61;100.00
39265;BME280;42646;51.910;7.724;2024-03-07T02:42:59;101950.28;;;3.58;100.00
39265;BME280;42646;51.910;7.724;2024-03-07T02:45:28;101941.66;;;3.54;100.00
39265;BME280;42646;51.910;7.724;2024-03-07T02:47:56;101949.63;;;3.53;100.00
39265;BME280;42646;51.910;7.724;2024-03-07T02:50:24;101943.56;;;3.51;100.00
39265;BME280;42646;51.910;7.724;2024-03-07T02:52:52;101941.91;;;3.48;100.00
39265;BME280;42646;51.910;7.724;2024-03-07T02:55:20;101936.72;;;3.46;100.00
39265;BME280;42646;51.910;7.724;2024-03-07T02:57:49;101939.41;;;3.45;100.00
39265;BME280;42646;51.910;7.724;2024-03-07T03:00:17;101939.50;;;3.42;100.00
39265;BME280;42646;51.910;7.724;2024-03-07T03:02:53;101941.34;;;3.40;100.00
39265;BME280;42646;51.910;7.724;2024-03-07T03:05:22;101941.53;;;3.35;100.00
39265;BME280;42646;51.910;7.724;2024-03-07T03:07:50;101933.78;;;3.32;100.00
39265;BME280;42646;51.910;7.724;2024-03-07T03:10:21;101933.09;;;3.27;100.00
39265;BME280;42646;51.910;7.724;2024-03-07T03:12:54;101934.13;;;3.23;100.00
39265;BME280;42646;51.910;7.724;2024-03-07T03:15:24;101929.91;;;3.19;100.00
39265;BME280;42646;51.910;7.724;2024-03-07T03:17:51;101931.81;;;3.15;100.00
39265;BME280;42646;51.910;7.724;2024-03-07T03:20:19;101932.75;;;3.13;100.00
39265;BME280;42646;51.910;7.724;2024-03-07T03:23:00;101923.41;;;3.06;100.00
39265;BME280;42646;51.910;7.724;2024-03-07T03:25:45;101927.91;;;3.02;100.00
39265;BME280;42646;51.910;7.724;2024-03-07T03:28:16;101922.84;;;2.98;100.00
39265;BME280;42646;51.910;7.724;2024-03-07T03:30:45;101923.81;;;2.95;100.00
39265;BME280;42646;51.910;7.724;2024-03-07T03:33:13;101923.03;;;2.93;100.00
39265;BME280;42646;51.910;7.724;2024-03-07T03:35:42;101923.19;;;2.88;100.00
39265;BME280;42646;51.910;7.724;2024-03-07T03:38:10;101924.19;;;2.84;100.00
39265;BME280;42646;51.910;7.724;2024-03-07T03:40:38;101923.56;;;2.79;100.00
39265;BME280;42646;51.910;7.724;2024-03-07T03:43:06;101926.28;;;2.76;100.00
39265;BME280;42646;51.910;7.724;2024-03-07T03:45:35;101923.81;;;2.72;100.00
39265;BME280;42646;51.910;7.724;2024-03-07T03:48:04;101931.00;;;2.66;100.00
39265;BME280;42646;51.910;7.724;2024-03-07T03:50:32;101917.22;;;2.61;100.00
39265;BME280;42646;51.910;7.724;2024-03-07T03:53:00;101917.31;;;2.58;100.00
39265;BME280;42646;51.910;7.724;2024-03-07T03:55:30;101913.06;;;2.54;100.00
39265;BME280;42646;51.910;7.724;2024-03-07T03:57:58;101914.03;;;2.52;100.00
39265;BME280;42646;51.910;7.724;2024-03-07T04:00:26;101913.34;;;2.47;100.00
39265;BME280;42646;51.910;7.724;2024-03-07T04:02:56;101920.47;;;2.43;100.00
39265;BME280;42646;51.910;7.724;2024-03-07T04:05:23;101924.13;;;2.39;100.00
39265;BME280;42646;51.910;7.724;2024-03-07T04:07:51;101923.38;;;2.35;100.00
39265;BME280;42646;51.910;7.724;2024-03-07T04:10:19;101921.78;;;2.31;100.00
39265;BME280;42646;51.910;7.724;2024-03-07T04:12:47;101916.63;;;2.28;100.00
39265;BME280;42646;51.910;7.724;2024-03-07T04:15:15;101920.25;;;2.26;100.00
39265;BME280;42646;51.910;7.724;2024-03-07T04:17:45;101918.63;;;2.22;100.00
39265;BME280;42646;51.910;7.724;2024-03-07T04:20:16;101923.13;;;2.18;100.00
39265;BME280;42646;51.910;7.724;2024-03-07T04:22:46;101924.09;;;2.16;100.00
39265;BME280;42646;51.910;7.724;2024-03-07T04:25:13;101924.19;;;2.12;100.00
39265;BME280;42646;51.910;7.724;2024-03-07T04:27:42;101925.22;;;2.08;100.00
39265;BME280;42646;51.910;7.724;2024-03-07T04:30:10;101918.34;;;2.04;100.00
39265;BME280;42646;51.910;7.724;2024-03-07T04:32:38;101924.53;;;2.03;100.00
39265;BME280;42646;51.910;7.724;2024-03-07T04:35:08;101914.16;;;1.99;100.00
39265;BME280;42646;51.910;7.724;2024-03-07T04:37:41;101924.78;;;1.96;100.00
39265;BME280;42646;51.910;7.724;2024-03-07T04:40:09;101914.38;;;1.93;100.00
39265;BME280;42646;51.910;7.724;2024-03-07T04:42:45;101913.59;;;1.91;100.00
39265;BME280;42646;51.910;7.724;2024-03-07T04:45:13;101918.06;;;1.87;100.00
39265;BME280;42646;51.910;7.724;2024-03-07T04:47:41;101915.44;;;1.87;100.00
39265;BME280;42646;51.910;7.724;2024-03-07T04:50:11;101912.03;;;1.85;100.00
39265;BME280;42646;51.910;7.724;2024-03-07T04:52:41;101911.19;;;1.83;100.00
39265;BME280;42646;51.910;7.724;2024-03-07T04:55:09;101915.59;;;1.82;100.00
39265;BME280;42646;51.910;7.724;2024-03-07T04:57:38;101918.22;;;1.82;100.00
39265;BME280;42646;51.910;7.724;2024-03-07T05:00:08;101912.16;;;1.80;100.00
39265;BME280;42646;51.910;7.724;2024-03-07T05:02:40;101915.72;;;1.79;100.00
39265;BME280;42646;51.910;7.724;2024-03-07T05:05:07;101909.59;;;1.79;100.00
39265;BME280;42646;51.910;7.724;2024-03-07T05:07:35;101906.16;;;1.77;100.00
39265;BME280;42646;51.910;7.724;2024-03-07T05:10:06;101918.47;;;1.75;100.00
39265;BME280;42646;51.910;7.724;2024-03-07T05:12:34;101917.69;;;1.73;100.00
39265;BME280;42646;51.910;7.724;2024-03-07T05:15:04;101912.53;;;1.70;100.00
39265;BME280;42646;51.910;7.724;2024-03-07T05:17:32;101915.19;;;1.68;100.00
39265;BME280;42646;51.910;7.724;2024-03-07T05:20:01;101921.38;;;1.66;100.00
39265;BME280;42646;51.910;7.724;2024-03-07T05:22:36;101915.41;;;1.62;100.00
39265;BME280;42646;51.910;7.724;2024-03-07T05:25:08;101918.13;;;1.59;100.00
39265;BME280;42646;51.910;7.724;2024-03-07T05:27:36;101913.84;;;1.56;100.00
39265;BME280;42646;51.910;7.724;2024-03-07T05:30:05;101918.28;;;1.54;100.00
39265;BME280;42646;51.910;7.724;2024-03-07T05:32:37;101923.63;;;1.51;100.00
39265;BME280;42646;51.910;7.724;2024-03-07T05:35:07;101926.25;;;1.51;100.00
39265;BME280;42646;51.910;7.724;2024-03-07T05:37:34;101921.13;;;1.47;100.00
39265;BME280;42646;51.910;7.724;2024-03-07T05:40:02;101917.72;;;1.45;100.00
39265;BME280;42646;51.910;7.724;2024-03-07T05:42:32;101916.91;;;1.43;100.00
39265;BME280;42646;51.910;7.724;2024-03-07T05:44:59;101918.72;;;1.41;100.00
39265;BME280;42646;51.910;7.724;2024-03-07T05:47:27;101918.81;;;1.38;100.00
39265;BME280;42646;51.910;7.724;2024-03-07T05:49:55;101931.09;;;1.36;100.00
39265;BME280;42646;51.910;7.724;2024-03-07T05:52:23;101927.63;;;1.35;100.00
39265;BME280;42646;51.910;7.724;2024-03-07T05:54:50;101930.34;;;1.32;100.00
39265;BME280;42646;51.910;7.724;2024-03-07T05:57:18;101927.78;;;1.30;100.00
39265;BME280;42646;51.910;7.724;2024-03-07T05:59:47;101925.25;;;1.27;100.00
39265;BME280;42646;51.910;7.724;2024-03-07T06:02:15;101927.06;;;1.25;100.00
39265;BME280;42646;51.910;7.724;2024-03-07T06:04:42;101927.94;;;1.24;100.00
39265;BME280;42646;51.910;7.724;2024-03-07T06:07:10;101934.16;;;1.22;100.00
39265;BME280;42646;51.910;7.724;2024-03-07T06:09:37;101933.34;;;1.20;100.00
39265;BME280;42646;51.910;7.724;2024-03-07T06:12:05;101936.00;;;1.18;100.00
39265;BME280;42646;51.910;7.724;2024-03-07T06:14:49;101929.06;;;1.17;100.00
39265;BME280;42646;51.910;7.724;2024-03-07T06:17:17;101933.53;;;1.14;100.00
39265;BME280;42646;51.910;7.724;2024-03-07T06:19:48;101929.19;;;1.13;100.00
39265;BME280;42646;51.910;7.724;2024-03-07T06:22:15;101938.81;;;1.12;100.00
39265;BME280;42646;51.910;7.724;2024-03-07T06:24:43;101936.19;;;1.12;100.00
39265;BME280;42646;51.910;7.724;2024-03-07T06:27:11;101939.66;;;1.13;100.00
39265;BME280;42646;51.910;7.724;2024-03-07T06:29:43;101940.56;;;1.13;100.00
39265;BME280;42646;51.910;7.724;2024-03-07T06:32:12;101933.50;;;1.15;100.00
39265;BME280;42646;51.910;7.724;2024-03-07T06:34:39;101939.50;;;1.19;100.00
39265;BME280;42646;51.910;7.724;2024-03-07T06:37:07;101942.88;;;1.22;100.00
39265;BME280;42646;51.910;7.724;2024-03-07T06:39:35;101937.56;;;1.25;100.00
39265;BME280;42646;51.910;7.724;2024-03-07T06:42:03;101936.59;;;1.28;100.00
39265;BME280;42646;51.910;7.724;2024-03-07T06:44:32;101940.00;;;1.30;100.00
39265;BME280;42646;51.910;7.724;2024-03-07T06:46:59;101936.44;;;1.32;100.00
39265;BME280;42646;51.910;7.724;2024-03-07T06:49:28;101939.88;;;1.34;100.00
39265;BME280;42646;51.910;7.724;2024-03-07T06:51:57;101938.97;;;1.36;100.00
39265;BME280;42646;51.910;7.724;2024-03-07T06:54:24;101937.19;;;1.38;100.00
39265;BME280;42646;51.910;7.724;2024-03-07T06:56:52;101923.09;;;1.40;100.00
39265;BME280;42646;51.910;7.724;2024-03-07T06:59:20;101925.63;;;1.43;100.00
39265;BME280;42646;51.910;7.724;2024-03-07T07:01:48;101921.13;;;1.47;100.00
39265;BME280;42646;51.910;7.724;2024-03-07T07:04:17;101929.56;;;1.56;100.00
39265;BME280;42646;51.910;7.724;2024-03-07T07:06:47;101930.28;;;1.62;100.00
39265;BME280;42646;51.910;7.724;2024-03-07T07:09:15;101922.22;;;1.68;100.00
39265;BME280;42646;51.910;7.724;2024-03-07T07:11:45;101932.38;;;1.77;100.00
39265;BME280;42646;51.910;7.724;2024-03-07T07:14:13;101935.56;;;1.86;100.00
39265;BME280;42646;51.910;7.724;2024-03-07T07:16:41;101938.00;;;1.93;100.00
39265;BME280;42646;51.910;7.724;2024-03-07T07:19:12;101931.63;;;2.00;100.00
39265;BME280;42646;51.910;7.724;2024-03-07T07:21:39;101934.03;;;2.06;100.00
39265;BME280;42646;51.910;7.724;2024-03-07T07:24:09;101932.13;;;2.11;100.00
39265;BME280;42646;51.910;7.724;2024-03-07T07:26:37;101939.78;;;2.17;100.00
39265;BME280;42646;51.910;7.724;2024-03-07T07:29:05;101939.56;;;2.23;100.00
39265;BME280;42646;51.910;7.724;2024-03-07T07:31:32;101932.41;;;2.28;100.00
39265;BME280;42646;51.910;7.724;2024-03-07T07:34:00;101933.94;;;2.34;100.00
39265;BME280;42646;51.910;7.724;2024-03-07T07:36:30;101936.34;;;2.40;100.00
39265;BME280;42646;51.910;7.724;2024-03-07T07:38:58;101925.72;;;2.43;100.00
39265;BME280;42646;51.910;7.724;2024-03-07T07:41:27;101938.66;;;2.49;100.00
39265;BME280;42646;51.910;7.724;2024-03-07T07:43:56;101931.44;;;2.54;100.00
39265;BME280;42646;51.910;7.724;2024-03-07T07:46:24;101940.03;;;2.59;100.00
39265;BME280;42646;51.910;7.724;2024-03-07T07:48:51;101938.03;;;2.66;100.00
39265;BME280;42646;51.910;7.724;2024-03-07T07:51:19;101934.38;;;2.70;100.00
39265;BME280;42646;51.910;7.724;2024-03-07T07:53:47;101936.78;;;2.76;100.00
39265;BME280;42646;51.910;7.724;2024-03-07T07:56:15;101936.56;;;2.82;100.00
39265;BME280;42646;51.910;7.724;2024-03-07T07:58:44;101932.84;;;2.88;100.00
39265;BME280;42646;51.910;7.724;2024-03-07T08:01:12;101936.09;;;2.94;100.00
39265;BME280;42646;51.910;7.724;2024-03-07T08:03:42;101945.44;;;3.02;100.00
39265;BME280;42646;51.910;7.724;2024-03-07T08:06:11;101933.06;;;3.05;100.00
39265;BME280;42646;51.910;7.724;2024-03-07T08:08:39;101931.97;;;3.11;100.00
39265;BME280;42646;51.910;7.724;2024-03-07T08:11:07;101923.84;;;3.17;100.00
39265;BME280;42646;51.910;7.724;2024-03-07T08:13:35;101930.72;;;3.21;100.00
39265;BME280;42646;51.910;7.724;2024-03-07T08:16:05;101922.59;;;3.27;100.00
39265;BME280;42646;51.910;7.724;2024-03-07T08:18:33;101919.75;;;3.32;100.00
39265;BME280;42646;51.910;7.724;2024-03-07T08:21:00;101916.88;;;3.38;100.00
39265;BME280;42646;51.910;7.724;2024-03-07T08:23:28;101919.31;;;3.42;100.00
39265;BME280;42646;51.910;7.724;2024-03-07T08:25:57;101913.88;;;3.47;100.00
39265;BME280;42646;51.910;7.724;2024-03-07T08:28:25;101910.16;;;3.53;100.00
39265;BME280;42646;51.910;7.724;2024-03-07T08:30:53;101909.97;;;3.57;100.00
39265;BME280;42646;51.910;7.724;2024-03-07T08:33:22;101914.97;;;3.63;100.00
39265;BME280;42646;51.910;7.724;2024-03-07T08:35:50;101919.19;;;3.67;100.00
39265;BME280;42646;51.910;7.724;2024-03-07T08:38:19;101916.38;;;3.72;100.00
39265;BME280;42646;51.910;7.724;2024-03-07T08:40:47;101911.69;;;3.79;100.00
39265;BME280;42646;51.910;7.724;2024-03-07T08:43:15;101921.06;;;3.86;100.00
39265;BME280;42646;51.910;7.724;2024-03-07T08:45:43;101924.50;;;3.88;100.00
39265;BME280;42646;51.910;7.724;2024-03-07T08:48:10;101918.03;;;3.95;100.00
39265;BME280;42646;51.910;7.724;2024-03-07T08:50:41;101920.50;;;3.99;100.00
39265;BME280;42646;51.910;7.724;2024-03-07T08:53:08;101909.75;;;4.04;100.00
39265;BME280;42646;51.910;7.724;2024-03-07T08:55:36;101909.50;;;4.10;100.00
39265;BME280;42646;51.910;7.724;2024-03-07T08:58:04;101902.25;;;4.15;100.00
39265;BME280;42646;51.910;7.724;2024-03-07T09:00:34;101900.22;;;4.22;100.00
39265;BME280;42646;51.910;7.724;2024-03-07T09:03:05;101898.25;;;4.27;100.00
39265;BME280;42646;51.910;7.724;2024-03-07T09:05:37;101890.84;;;4.35;100.00
39265;BME280;42646;51.910;7.724;2024-03-07T09:08:07;101894.97;;;4.41;100.00
39265;BME280;42646;51.910;7.724;2024-03-07T09:10:35;101892.94;;;4.47;100.00
39265;BME280;42646;51.910;7.724;2024-03-07T09:13:03;101890.75;;;4.57;100.00
39265;BME280;42646;51.910;7.724;2024-03-07T09:15:32;101890.22;;;4.68;100.00
39265;BME280;42646;51.910;7.724;2024-03-07T09:18:00;101886.41;;;4.75;100.00
39265;BME280;42646;51.910;7.724;2024-03-07T09:20:30;101889.53;;;4.83;100.00
39265;BME280;42646;51.910;7.724;2024-03-07T09:22:58;101888.25;;;4.92;100.00
39265;BME280;42646;51.910;7.724;2024-03-07T09:25:27;101891.47;;;4.98;100.00
39265;BME280;42646;51.910;7.724;2024-03-07T09:27:59;101891.97;;;5.06;100.00
39265;BME280;42646;51.910;7.724;2024-03-07T09:30:27;101896.84;;;5.14;100.00
39265;BME280;42646;51.910;7.724;2024-03-07T09:32:56;101888.66;;;5.20;100.00
39265;BME280;42646;51.910;7.724;2024-03-07T09:35:25;101881.53;;;5.22;100.00
39265;BME280;42646;51.910;7.724;2024-03-07T09:37:53;101888.31;;;5.28;100.00
39265;BME280;42646;51.910;7.724;2024-03-07T09:40:22;101886.34;;;5.31;100.00
39265;BME280;42646;51.910;7.724;2024-03-07T09:42:56;101887.84;;;5.37;100.00
39265;BME280;42646;51.910;7.724;2024-03-07T09:45:29;101886.69;;;5.43;100.00
39265;BME280;42646;51.910;7.724;2024-03-07T09:47:57;101883.84;;;5.47;100.00
39265;BME280;42646;51.910;7.724;2024-03-07T09:50:26;101883.53;;;5.53;100.00
39265;BME280;42646;51.910;7.724;2024-03-07T09:52:58;101878.88;;;5.58;100.00
39265;BME280;42646;51.910;7.724;2024-03-07T09:55:26;101887.25;;;5.67;100.00
39265;BME280;42646;51.910;7.724;2024-03-07T09:57:56;101883.47;;;5.72;100.00
39265;BME280;42646;51.910;7.724;2024-03-07T10:00:27;101895.34;;;5.81;100.00
39265;BME280;42646;51.910;7.724;2024-03-07T10:02:58;101888.97;;;5.85;100.00
39265;BME280;42646;51.910;7.724;2024-03-07T10:05:27;101881.69;;;5.90;100.00
39265;BME280;42646;51.910;7.724;2024-03-07T10:07:56;101889.41;;;5.95;100.00
39265;BME280;42646;51.910;7.724;2024-03-07T10:10:24;101883.09;;;5.97;100.00
39265;BME280;42646;51.910;7.724;2024-03-07T10:12:52;101887.22;;;6.03;100.00
39265;BME280;42646;51.910;7.724;2024-03-07T10:15:27;101887.69;;;6.11;100.00
39265;BME280;42646;51.910;7.724;2024-03-07T10:17:55;101889.47;;;6.10;100.00
39265;BME280;42646;51.910;7.724;2024-03-07T10:20:23;101875.03;;;6.18;100.00
39265;BME280;42646;51.910;7.724;2024-03-07T10:22:51;101876.41;;;6.25;100.00
39265;BME280;42646;51.910;7.724;2024-03-07T10:25:20;101870.03;;;6.29;100.00
39265;BME280;42646;51.910;7.724;2024-03-07T10:27:50;101874.81;;;6.38;100.00
39265;BME280;42646;51.910;7.724;2024-03-07T10:30:19;101872.69;;;6.45;100.00
39265;BME280;42646;51.910;7.724;2024-03-07T10:32:51;101877.50;;;6.54;100.00
39265;BME280;42646;51.910;7.724;2024-03-07T10:35:22;101874.88;;;6.69;100.00
39265;BME280;42646;51.910;7.724;2024-03-07T10:37:51;101871.22;;;6.72;100.00
39265;BME280;42646;51.910;7.724;2024-03-07T10:40:20;101871.72;;;6.79;100.00
39265;BME280;42646;51.910;7.724;2024-03-07T10:42:49;101869.78;;;6.82;100.00
39265;BME280;42646;51.910;7.724;2024-03-07T10:45:20;101871.31;;;6.86;100.00
39265;BME280;42646;51.910;7.724;2024-03-07T10:47:53;101864.41;;;6.84;100.00
39265;BME280;42646;51.910;7.724;2024-03-07T10:50:30;101865.84;;;6.89;100.00
39265;BME280;42646;51.910;7.724;2024-03-07T10:53:07;101864.56;;;6.96;100.00
39265;BME280;42646;51.910;7.724;2024-03-07T10:55:41;101865.84;;;7.05;100.00
39265;BME280;42646;51.910;7.724;2024-03-07T10:58:18;101865.69;;;7.08;100.00
39265;BME280;42646;51.910;7.724;2024-03-07T11:00:56;101867.13;;;7.14;100.00
39265;BME280;42646;51.910;7.724;2024-03-07T11:03:26;101859.34;;;7.27;100.00
39265;BME280;42646;51.910;7.724;2024-03-07T11:05:54;101857.66;;;7.26;100.00
39265;BME280;42646;51.910;7.724;2024-03-07T11:08:23;101860.28;;;7.26;100.00
39265;BME280;42646;51.910;7.724;2024-03-07T11:10:53;101859.84;;;7.33;100.00
39265;BME280;42646;51.910;7.724;2024-03-07T11:13:21;101860.53;;;7.37;100.00
39265;BME280;42646;51.910;7.724;2024-03-07T11:15:50;101847.19;;;7.38;100.00
39265;BME280;42646;51.910;7.724;2024-03-07T11:18:18;101859.59;;;7.38;100.00
39265;BME280;42646;51.910;7.724;2024-03-07T11:20:48;101855.84;;;7.42;99.52
39265;BME280;42646;51.910;7.724;2024-03-07T11:23:26;101857.19;;;7.49;98.82
39265;BME280;42646;51.910;7.724;2024-03-07T11:25:55;101850.53;;;7.42;98.90
39265;BME280;42646;51.910;7.724;2024-03-07T11:28:30;101849.13;;;7.50;97.94
39265;BME280;42646;51.910;7.724;2024-03-07T11:31:12;101842.50;;;7.43;98.32
39265;BME280;42646;51.910;7.724;2024-03-07T11:33:41;101844.28;;;7.43;98.97
39265;BME280;42646;51.910;7.724;2024-03-07T11:36:11;101832.88;;;7.57;98.34
39265;BME280;42646;51.910;7.724;2024-03-07T11:38:44;101835.91;;;7.50;98.40
39265;BME280;42646;51.910;7.724;2024-03-07T11:41:12;101826.00;;;7.54;98.49
39265;BME280;42646;51.910;7.724;2024-03-07T11:43:41;101827.69;;;7.55;98.99
39265;BME280;42646;51.910;7.724;2024-03-07T11:46:10;101826.28;;;7.64;98.82
39265;BME280;42646;51.910;7.724;2024-03-07T11:48:43;101819.88;;;7.68;98.65
39265;BME280;42646;51.910;7.724;2024-03-07T11:51:13;101814.03;;;7.77;99.01
39265;BME280;42646;51.910;7.724;2024-03-07T11:53:43;101821.78;;;7.80;98.59
39265;BME280;42646;51.910;7.724;2024-03-07T11:56:14;101815.28;;;7.86;98.22
39265;BME280;42646;51.910;7.724;2024-03-07T11:58:44;101812.44;;;7.89;97.55
39265;BME280;42646;51.910;7.724;2024-03-07T12:01:21;101806.28;;;7.88;97.66
39265;BME280;42646;51.910;7.724;2024-03-07T12:03:51;101802.50;;;7.92;97.46
39265;BME280;42646;51.910;7.724;2024-03-07T12:06:24;101794.44;;;7.94;97.73
39265;BME280;42646;51.910;7.724;2024-03-07T12:08:51;101797.78;;;7.97;97.94
39265;BME280;42646;51.910;7.724;2024-03-07T12:11:19;101795.22;;;7.96;97.49
39265;BME280;42646;51.910;7.724;2024-03-07T12:13:47;101790.69;;;7.98;97.58
39265;BME280;42646;51.910;7.724;2024-03-07T12:16:17;101782.34;;;7.90;95.20
39265;BME280;42646;51.910;7.724;2024-03-07T12:18:45;101784.22;;;7.88;95.62
39265;BME280;42646;51.910;7.724;2024-03-07T12:21:15;101781.56;;;7.88;96.06
39265;BME280;42646;51.910;7.724;2024-03-07T12:23:48;101776.00;;;7.92;96.16
39265;BME280;42646;51.910;7.724;2024-03-07T12:26:20;101778.28;;;7.98;95.20
39265;BME280;42646;51.910;7.724;2024-03-07T12:28:52;101767.09;;;7.93;95.17
39265;BME280;42646;51.910;7.724;2024-03-07T12:31:21;101766.47;;;7.90;95.71
39265;BME280;42646;51.910;7.724;2024-03-07T12:33:51;101756.22;;;7.98;95.72
39265;BME280;42646;51.910;7.724;2024-03-07T12:36:19;101753.31;;;8.02;95.43
39265;BME280;42646;51.910;7.724;2024-03-07T12:38:54;101745.16;;;8.06;95.49
39265;BME280;42646;51.910;7.724;2024-03-07T12:41:22;101750.06;;;8.12;95.46
39265;BME280;42646;51.910;7.724;2024-03-07T12:43:51;101737.38;;;8.17;94.73
39265;BME280;42646;51.910;7.724;2024-03-07T12:46:18;101741.16;;;8.27;93.31
39265;BME280;42646;51.910;7.724;2024-03-07T12:48:46;101737.28;;;8.33;92.97
39265;BME280;42646;51.910;7.724;2024-03-07T12:51:16;101733.53;;;8.37;92.89
39265;BME280;42646;51.910;7.724;2024-03-07T12:53:46;101732.47;;;8.39;93.64
39265;BME280;42646;51.910;7.724;2024-03-07T12:56:16;101734.72;;;8.45;93.53
39265;BME280;42646;51.910;7.724;2024-03-07T12:58:47;101734.63;;;8.47;93.94
39265;BME280;42646;51.910;7.724;2024-03-07T13:01:15;101730.84;;;8.51;93.57